Etusivu
METAR-TAF:

METAR-TAF

Lentoasemat :

Mo i Rana, Norja

Leveyspiiri: 66-22N, Pituuspiiri: 014-18E, korkeus merenpinnasta: 7 m

Tämänhetkinen sää

Tämä raportti tehtiin 17 tuntia ja 30 minuuttia sitten, kello 14.20 UTC
Tuuli 16 kn idästä/koillisesta
Lämpötila -7°C
Kosteus 57%
Ilmanpaine 1039 hPa
Näkyvyys 10 km tai enemmän
Hajonneita pilviä 4000 ft:n korkeudessa
heikkoa lumisadetta

METAR: ENRA 241420Z 07016KT 9999 -SN BKN040 M07/M14 Q1039

Aika: 08:50 (07:50 UTC)

Sääennuste

Tämä raportti tehtiin 20 tuntia ja 50 minuuttia sitten, kello 11.00 UTC
Ennuste voimassa 24. päivästä klo 12 UTC - 24. päivään klo 15 UTC
Tuuli 12 kn idästä
Näkyvyys: 6000 m
Hajanaisia pilviä 1000 ft:n korkeudessa
Hajonneita pilviä 2000 ft:n korkeudessa
heikkoa lumisadetta

TAF: ENRA 241100Z 2412/2415 08012KT 6000 -SN SCT010 BKN020

Säähavainnot ja -ennusteet yli 4000 lentoasemalta (METAR- ja TAF-raportit).

Käytössä olevat sääasemat on merkitty karttaan keltaisilla ja punaisilla pisteillä.

Aseta hiiri pisteen päälle nähdäksesi sääaseman nimen.

Klikkaa sitten nähdäksesi säähavainnot ja -ennusteet.

Kartan vaihtaminen: klikkaa mustalla rastilla varustettuja vihreitä pisteitä, niin voit zoomata sisään; viivalla varustettua vihreää pistettä, niin voit zoomata ulos tai vihreitä nuolia, niin pääset viereisille kartoille.


METAR-TAF: